createdAt,value
2018-12-15T00:00:54.865Z,6.10
2018-12-15T00:03:25.502Z,3.27
2018-12-15T00:05:56.148Z,4.05
2018-12-15T00:08:24.853Z,5.03
2018-12-15T00:10:54.862Z,5.78
2018-12-15T00:13:23.613Z,5.40
2018-12-15T00:15:52.447Z,5.25
2018-12-15T00:18:21.212Z,4.83
2018-12-15T00:20:50.040Z,5.65
2018-12-15T00:23:18.751Z,6.90
2018-12-15T00:25:47.439Z,4.20
2018-12-15T00:28:18.033Z,4.75
2018-12-15T00:30:46.749Z,3.67
2018-12-15T00:33:15.447Z,6.30
2018-12-15T00:35:45.225Z,6.28
2018-12-15T00:38:13.998Z,3.77
2018-12-15T00:40:42.711Z,4.55
2018-12-15T00:43:11.408Z,5.35
2018-12-15T00:45:40.165Z,4.15
2018-12-15T00:48:08.937Z,4.65
2018-12-15T00:50:37.861Z,3.77
2018-12-15T00:53:06.571Z,4.72
2018-12-15T00:55:35.339Z,4.00
2018-12-15T00:58:04.217Z,5.90
2018-12-15T01:00:32.994Z,5.08
2018-12-15T01:03:01.680Z,4.22
2018-12-15T01:05:30.527Z,6.12
2018-12-15T01:07:59.377Z,4.22
2018-12-15T01:10:28.147Z,3.20
2018-12-15T01:12:58.056Z,4.47
2018-12-15T01:15:32.111Z,5.50
2018-12-15T01:18:00.881Z,3.77
2018-12-15T01:20:29.719Z,4.80
2018-12-15T01:22:58.447Z,4.85
2018-12-15T01:25:27.187Z,4.95
2018-12-15T01:27:55.892Z,5.60
2018-12-15T01:30:24.598Z,4.55
2018-12-15T01:32:53.335Z,4.28
2018-12-15T01:35:22.121Z,4.30
2018-12-15T01:37:50.889Z,3.80
2018-12-15T01:40:19.723Z,3.67
2018-12-15T01:42:48.497Z,5.03
2018-12-15T01:45:17.251Z,5.25
2018-12-15T01:47:46.872Z,5.42
2018-12-15T01:50:15.559Z,4.15
2018-12-15T01:52:44.387Z,7.28
2018-12-15T01:55:13.198Z,6.28
2018-12-15T01:57:41.883Z,4.62
2018-12-15T02:00:13.095Z,5.17
2018-12-15T02:02:42.196Z,3.55
2018-12-15T02:05:11.042Z,4.70
2018-12-15T02:07:39.818Z,4.12
2018-12-15T02:10:09.042Z,5.15
2018-12-15T02:12:37.897Z,5.03
2018-12-15T02:15:07.369Z,4.58
2018-12-15T02:17:36.167Z,4.53
2018-12-15T02:20:05.669Z,7.45
2018-12-15T02:22:34.381Z,5.50
2018-12-15T02:25:04.884Z,4.50
2018-12-15T02:27:33.581Z,5.53
2018-12-15T02:30:02.399Z,4.35
2018-12-15T02:32:31.163Z,4.28
2018-12-15T02:34:59.873Z,6.45
2018-12-15T02:37:30.616Z,5.42
2018-12-15T02:39:59.303Z,5.17
2018-12-15T02:42:28.013Z,6.58
2018-12-15T02:44:56.838Z,6.10
2018-12-15T02:47:25.498Z,5.97
2018-12-15T02:49:54.205Z,3.20
2018-12-15T02:52:22.965Z,4.87
2018-12-15T02:54:51.693Z,4.50
2018-12-15T02:57:20.379Z,4.92
2018-12-15T02:59:49.077Z,4.40
2018-12-15T03:02:17.782Z,4.15
2018-12-15T03:04:46.476Z,6.40
2018-12-15T03:07:15.230Z,6.40
2018-12-15T03:09:43.923Z,6.78
2018-12-15T03:12:12.691Z,6.00
2018-12-15T03:14:42.520Z,4.62
2018-12-15T03:17:13.378Z,3.22
2018-12-15T03:19:43.268Z,3.77
2018-12-15T03:22:12.047Z,6.25
2018-12-15T03:24:40.845Z,4.78
2018-12-15T03:27:09.607Z,4.12
2018-12-15T03:29:38.505Z,5.55
2018-12-15T03:32:07.330Z,5.60
2018-12-15T03:34:36.033Z,4.47
2018-12-15T03:37:04.719Z,5.35
2018-12-15T03:39:34.137Z,4.70
2018-12-15T03:42:03.106Z,5.42
2018-12-15T03:44:31.823Z,3.45
2018-12-15T03:47:00.589Z,4.50
2018-12-15T03:49:29.294Z,3.85
2018-12-15T03:51:59.560Z,8.43
2018-12-15T03:54:28.254Z,5.83
2018-12-15T03:56:56.961Z,3.27
2018-12-15T03:59:25.914Z,5.72
2018-12-15T04:01:54.735Z,4.97
2018-12-15T04:04:23.490Z,4.47
2018-12-15T04:06:52.234Z,4.12
2018-12-15T04:09:22.004Z,5.87
2018-12-15T04:11:50.691Z,6.30
2018-12-15T04:14:19.397Z,4.10
2018-12-15T04:16:48.091Z,6.03
2018-12-15T04:19:16.812Z,3.17
2018-12-15T04:21:45.718Z,4.28
2018-12-15T04:24:14.510Z,5.70
2018-12-15T04:26:43.203Z,4.33
2018-12-15T04:29:13.911Z,4.72
2018-12-15T04:31:42.729Z,5.58
2018-12-15T04:34:11.513Z,7.53
2018-12-15T04:36:40.203Z,3.85
2018-12-15T04:39:15.704Z,6.10
2018-12-15T04:41:44.387Z,4.87
2018-12-15T04:44:13.147Z,4.22
2018-12-15T04:46:44.165Z,6.15
2018-12-15T04:49:12.884Z,6.22
2018-12-15T04:51:41.587Z,4.20
2018-12-15T04:54:10.296Z,4.80
2018-12-15T04:56:39.109Z,4.72
2018-12-15T04:59:07.824Z,5.83
2018-12-15T05:01:36.822Z,3.90
2018-12-15T05:04:05.656Z,5.58
2018-12-15T05:06:34.397Z,4.87
2018-12-15T05:09:04.105Z,5.15
2018-12-15T05:11:32.859Z,4.80
2018-12-15T05:14:01.699Z,7.05
2018-12-15T05:16:30.423Z,3.95
2018-12-15T05:18:59.181Z,4.00
2018-12-15T05:21:28.001Z,4.37
2018-12-15T05:23:56.739Z,4.05
2018-12-15T05:26:25.427Z,3.95
2018-12-15T05:28:54.125Z,5.30
2018-12-15T05:31:23.367Z,3.37
2018-12-15T05:33:54.069Z,4.47
2018-12-15T05:36:22.751Z,4.55
2018-12-15T05:38:51.451Z,3.80
2018-12-15T05:41:21.048Z,4.65
2018-12-15T05:43:49.811Z,4.67
2018-12-15T05:46:18.485Z,4.58
2018-12-15T05:48:47.183Z,5.40
2018-12-15T05:51:15.928Z,3.75
2018-12-15T05:53:44.623Z,3.20
2018-12-15T05:56:13.330Z,4.83
2018-12-15T05:58:42.127Z,4.97
2018-12-15T06:01:10.839Z,2.85
2018-12-15T06:03:39.557Z,4.37
2018-12-15T06:06:08.394Z,5.00
2018-12-15T06:08:37.085Z,5.00
2018-12-15T06:11:05.871Z,5.30
2018-12-15T06:13:34.578Z,5.55
2018-12-15T06:16:03.503Z,4.83
2018-12-15T06:18:32.282Z,6.35
2018-12-15T06:21:00.991Z,4.03
2018-12-15T06:23:29.693Z,6.50
2018-12-15T06:25:58.397Z,4.75
2018-12-15T06:28:27.079Z,5.05
2018-12-15T06:30:57.192Z,4.85
2018-12-15T06:33:25.911Z,5.33
2018-12-15T06:35:54.684Z,3.08
2018-12-15T06:38:23.444Z,4.62
2018-12-15T06:40:52.149Z,4.42
2018-12-15T06:43:21.057Z,4.80
2018-12-15T06:45:49.837Z,5.17
2018-12-15T06:48:18.724Z,6.03
2018-12-15T06:50:49.896Z,4.40
2018-12-15T06:53:18.568Z,8.03
2018-12-15T06:55:47.348Z,4.28
2018-12-15T06:58:16.057Z,5.20
2018-12-15T07:00:44.901Z,3.87
2018-12-15T07:03:13.784Z,4.70
2018-12-15T07:05:43.355Z,5.12
2018-12-15T07:08:12.218Z,4.80
2018-12-15T07:10:40.975Z,4.90
2018-12-15T07:13:09.785Z,5.53
2018-12-15T07:15:38.641Z,5.45
2018-12-15T07:18:07.451Z,4.87
2018-12-15T07:20:36.185Z,5.05
2018-12-15T07:23:05.250Z,6.25
2018-12-15T07:25:34.243Z,5.15
2018-12-15T07:28:02.939Z,6.00
2018-12-15T07:30:31.955Z,5.72
2018-12-15T07:33:00.666Z,5.15
2018-12-15T07:35:29.450Z,5.00
2018-12-15T07:38:00.571Z,3.87
2018-12-15T07:40:29.312Z,5.83
2018-12-15T07:42:58.078Z,4.50
2018-12-15T07:45:28.287Z,5.15
2018-12-15T07:47:57.048Z,4.35
2018-12-15T07:50:25.858Z,6.30
2018-12-15T07:52:54.563Z,5.05
2018-12-15T07:55:23.393Z,4.47
2018-12-15T07:57:52.671Z,4.78
2018-12-15T08:00:21.437Z,4.75
2018-12-15T08:02:50.215Z,6.40
2018-12-15T08:05:19.099Z,5.33
2018-12-15T08:07:48.500Z,5.08
2018-12-15T08:10:22.659Z,5.35
2018-12-15T08:13:00.496Z,5.12
2018-12-15T08:15:29.292Z,4.53
2018-12-15T08:19:01.722Z,3.55
2018-12-15T08:21:30.979Z,4.65
2018-12-15T08:23:59.817Z,4.30
2018-12-15T08:26:28.612Z,5.35
2018-12-15T08:28:57.479Z,4.10
2018-12-15T08:31:26.330Z,4.28
2018-12-15T08:33:54.983Z,5.40
2018-12-15T08:36:24.654Z,3.80
2018-12-15T08:38:53.399Z,4.72
2018-12-15T08:41:22.210Z,5.37
2018-12-15T08:43:51.609Z,5.37
2018-12-15T08:46:20.377Z,4.03
2018-12-15T08:48:49.292Z,3.22
2018-12-15T08:51:19.533Z,4.45
2018-12-15T08:53:49.855Z,3.85
2018-12-15T08:56:18.742Z,3.77
2018-12-15T08:58:47.523Z,4.58
2018-12-15T09:01:16.291Z,4.72
2018-12-15T09:03:45.075Z,6.10
2018-12-15T09:06:15.694Z,3.70
2018-12-15T09:08:44.989Z,4.15
2018-12-15T09:11:13.791Z,4.10
2018-12-15T09:13:42.634Z,3.95
2018-12-15T09:16:11.670Z,4.65
2018-12-15T09:18:41.011Z,4.92
2018-12-15T09:21:10.375Z,5.90
2018-12-15T09:23:39.037Z,5.50
2018-12-15T09:26:08.411Z,4.03
2018-12-15T09:28:37.173Z,5.35
2018-12-15T09:31:05.945Z,5.15
2018-12-15T09:33:34.965Z,3.83
2018-12-15T09:36:03.919Z,3.35
2018-12-15T09:38:32.571Z,5.35
2018-12-15T09:41:02.037Z,4.78
2018-12-15T09:43:30.768Z,3.83
2018-12-15T09:45:59.582Z,3.83
2018-12-15T09:48:29.290Z,5.03
2018-12-15T09:50:58.030Z,2.92
2018-12-15T09:53:28.345Z,3.98
2018-12-15T09:55:57.804Z,4.10
2018-12-15T09:58:26.571Z,4.78
2018-12-15T10:00:55.327Z,4.42
2018-12-15T10:03:24.863Z,5.25
2018-12-15T10:05:53.762Z,5.90
2018-12-15T10:08:22.474Z,4.97
2018-12-15T10:10:51.903Z,3.77
2018-12-15T10:13:20.657Z,5.20
2018-12-15T10:15:49.569Z,4.72
2018-12-15T10:18:18.404Z,3.42
2018-12-15T10:20:49.059Z,5.20
2018-12-15T10:23:17.928Z,5.22
2018-12-15T10:25:46.750Z,4.15
2018-12-15T10:28:15.583Z,4.35
2018-12-15T10:30:49.835Z,4.65
2018-12-15T10:33:20.754Z,5.55
2018-12-15T10:35:49.676Z,5.20
2018-12-15T10:38:18.429Z,4.60
2018-12-15T10:40:47.228Z,4.37
2018-12-15T10:43:15.957Z,3.55
2018-12-15T10:45:44.645Z,4.05
2018-12-15T10:48:16.242Z,3.87
2018-12-15T10:50:44.949Z,5.22
2018-12-15T10:53:15.437Z,4.83
2018-12-15T10:55:44.078Z,4.00
2018-12-15T10:58:13.792Z,4.53
2018-12-15T11:00:48.095Z,4.08
2018-12-15T11:03:17.013Z,4.28
2018-12-15T11:05:45.877Z,4.35
2018-12-15T11:08:14.592Z,4.22
2018-12-15T11:10:43.389Z,5.70
2018-12-15T11:13:13.163Z,4.97
2018-12-15T11:15:43.570Z,3.58
2018-12-15T11:18:13.482Z,4.40
2018-12-15T11:20:42.262Z,5.15
2018-12-15T11:23:11.242Z,4.15
2018-12-15T11:25:40.157Z,4.05
2018-12-15T11:28:10.079Z,4.58
2018-12-15T11:30:40.361Z,5.03
2018-12-15T11:33:09.191Z,6.53
2018-12-15T11:35:38.706Z,3.98
2018-12-15T11:38:07.578Z,4.20
2018-12-15T11:40:36.376Z,5.80
2018-12-15T11:43:05.199Z,5.45
2018-12-15T11:45:33.969Z,4.55
2018-12-15T11:48:02.813Z,4.37
2018-12-15T11:50:33.098Z,4.50
2018-12-15T11:53:01.846Z,5.22
2018-12-15T11:55:30.519Z,4.33
2018-12-15T11:57:59.398Z,4.45
2018-12-15T12:00:29.611Z,5.25
2018-12-15T12:02:58.473Z,4.17
2018-12-15T12:05:28.405Z,5.45
2018-12-15T12:07:58.018Z,5.70
2018-12-15T12:10:26.690Z,3.55
2018-12-15T12:12:55.525Z,6.85
2018-12-15T12:15:25.049Z,3.90
2018-12-15T12:17:53.844Z,4.90
2018-12-15T12:20:22.761Z,4.65
2018-12-15T12:22:53.234Z,4.65
2018-12-15T12:25:25.134Z,4.75
2018-12-15T12:27:55.929Z,6.12
2018-12-15T12:30:24.599Z,3.62
2018-12-15T12:32:54.312Z,4.45
2018-12-15T12:35:23.111Z,4.37
2018-12-15T12:37:51.921Z,5.28
2018-12-15T12:40:22.452Z,5.80
2018-12-15T12:42:52.332Z,5.28
2018-12-15T12:45:21.099Z,5.12
2018-12-15T12:47:50.185Z,5.35
2018-12-15T12:50:18.931Z,4.72
2018-12-15T12:52:47.669Z,3.50
2018-12-15T12:55:16.439Z,2.98
2018-12-15T12:57:45.190Z,3.90
2018-12-15T13:00:14.980Z,4.15
2018-12-15T13:02:43.746Z,7.25
2018-12-15T13:05:12.517Z,4.60
2018-12-15T13:07:41.391Z,5.40
2018-12-15T13:10:10.250Z,5.42
2018-12-15T13:12:40.041Z,4.40
2018-12-15T13:15:08.769Z,5.03
2018-12-15T13:17:37.996Z,4.75
2018-12-15T13:20:07.517Z,5.05
2018-12-15T13:22:36.243Z,4.90
2018-12-15T13:25:05.104Z,4.47
2018-12-15T13:27:34.072Z,5.22
2018-12-15T13:30:02.951Z,5.55
2018-12-15T13:32:31.846Z,3.72
2018-12-15T13:35:00.817Z,5.58
2018-12-15T13:37:29.745Z,5.58
2018-12-15T13:40:00.144Z,4.33
2018-12-15T13:42:29.622Z,6.20
2018-12-15T13:44:58.383Z,5.12
2018-12-15T13:47:28.017Z,5.53
2018-12-15T13:49:56.906Z,5.60
2018-12-15T13:52:25.758Z,4.22
2018-12-15T13:54:54.561Z,4.37
2018-12-15T13:57:23.446Z,4.90
2018-12-15T13:59:52.295Z,5.22
2018-12-15T14:02:21.183Z,5.22
2018-12-15T14:04:50.078Z,4.72
2018-12-15T14:07:19.045Z,6.50
2018-12-15T14:09:47.890Z,5.85
2018-12-15T14:12:16.673Z,5.55
2018-12-15T14:14:45.534Z,5.08
2018-12-15T14:17:14.383Z,4.75
2018-12-15T14:19:43.912Z,5.10
2018-12-15T14:22:12.861Z,5.47
2018-12-15T14:24:41.589Z,5.55
2018-12-15T14:27:12.639Z,5.22
2018-12-15T14:29:41.381Z,4.90
2018-12-15T14:32:11.146Z,5.45
2018-12-15T14:34:39.950Z,5.22
2018-12-15T14:37:08.900Z,6.85
2018-12-15T14:39:37.690Z,8.08
2018-12-15T14:42:06.635Z,7.35
2018-12-15T14:44:35.426Z,6.45
2018-12-15T14:47:04.460Z,6.17
2018-12-15T14:49:33.232Z,6.10
2018-12-15T14:52:04.658Z,6.25
2018-12-15T14:54:33.581Z,5.45
2018-12-15T14:57:02.501Z,7.05
2018-12-15T14:59:31.521Z,6.75
2018-12-15T15:02:00.279Z,5.22
2018-12-15T15:04:29.102Z,5.47
2018-12-15T15:06:57.792Z,6.03
2018-12-15T15:09:26.499Z,6.40
2018-12-15T15:11:55.695Z,5.97
2018-12-15T15:14:24.465Z,5.72
2018-12-15T15:16:53.185Z,5.00
2018-12-15T15:19:21.929Z,7.78
2018-12-15T15:21:50.695Z,5.17
2018-12-15T15:24:19.427Z,5.37
2018-12-15T15:26:48.119Z,6.05
2018-12-15T15:29:16.831Z,8.70
2018-12-15T15:31:45.601Z,7.17
2018-12-15T15:34:14.463Z,6.40
2018-12-15T15:36:43.151Z,5.87
2018-12-15T15:39:12.026Z,4.60
2018-12-15T15:41:40.895Z,7.78
2018-12-15T15:44:09.723Z,6.50
2018-12-15T15:46:38.601Z,6.08
2018-12-15T15:49:07.373Z,4.37
2018-12-15T15:51:36.167Z,6.33
2018-12-15T15:54:05.128Z,6.05
2018-12-15T15:56:34.655Z,7.12
2018-12-15T15:59:04.010Z,6.28
2018-12-15T16:01:34.596Z,6.47
2018-12-15T16:04:03.461Z,8.40
2018-12-15T16:06:32.433Z,6.65
2018-12-15T16:09:01.215Z,9.75
2018-12-15T16:11:31.396Z,6.85
2018-12-15T16:14:00.298Z,7.62
2018-12-15T16:16:32.523Z,9.83
2018-12-15T16:19:01.295Z,7.00
2018-12-15T16:21:30.186Z,6.53
2018-12-15T16:25:28.607Z,9.95
2018-12-15T16:27:58.672Z,6.33
2018-12-15T16:30:27.569Z,8.58
2018-12-15T16:32:57.215Z,8.18
2018-12-15T16:35:26.998Z,8.90
2018-12-15T16:37:55.825Z,7.37
2018-12-15T16:40:24.677Z,9.95
2018-12-15T16:42:53.587Z,9.50
2018-12-15T16:45:22.500Z,10.08
2018-12-15T16:47:51.377Z,9.05
2018-12-15T16:50:20.088Z,11.35
2018-12-15T16:52:49.044Z,9.35
2018-12-15T16:55:17.843Z,11.12
2018-12-15T16:57:46.618Z,11.83
2018-12-15T17:00:15.477Z,11.63
2018-12-15T17:02:44.353Z,9.53
2018-12-15T17:05:13.176Z,10.23
2018-12-15T17:07:43.872Z,10.88
2018-12-15T17:10:12.784Z,9.53
2018-12-15T17:12:41.572Z,11.70
2018-12-15T17:15:10.458Z,7.12
2018-12-15T17:17:39.308Z,9.68
2018-12-15T17:20:09.034Z,6.70
2018-12-15T17:22:37.891Z,8.15
2018-12-15T17:25:08.314Z,6.75
2018-12-15T17:27:37.696Z,6.92
2018-12-15T17:30:08.997Z,7.42
2018-12-15T17:32:38.158Z,8.33
2018-12-15T17:35:07.807Z,7.95
2018-12-15T17:37:37.308Z,7.85
2018-12-15T17:40:07.794Z,6.40
2018-12-15T17:42:36.524Z,7.67
2018-12-15T17:45:06.448Z,6.25
2018-12-15T17:47:35.216Z,7.87
2018-12-15T17:50:04.423Z,7.90
2018-12-15T17:52:35.067Z,7.95
2018-12-15T17:55:04.946Z,7.95
2018-12-15T17:57:33.876Z,7.75
2018-12-15T18:00:02.927Z,8.10
2018-12-15T18:02:31.690Z,6.80
2018-12-15T18:05:00.504Z,7.35
2018-12-15T18:07:29.213Z,7.42
2018-12-15T18:09:57.967Z,6.53
2018-12-15T18:12:26.737Z,5.30
2018-12-15T18:14:55.490Z,7.20
2018-12-15T18:17:24.581Z,6.42
2018-12-15T18:19:53.941Z,8.20
2018-12-15T18:22:22.726Z,6.62
2018-12-15T18:24:51.622Z,6.87
2018-12-15T18:27:20.522Z,8.65
2018-12-15T18:29:49.396Z,7.08
2018-12-15T18:32:18.174Z,7.12
2018-12-15T18:34:46.925Z,8.75
2018-12-15T18:37:15.865Z,8.25
2018-12-15T18:39:44.587Z,9.35
2018-12-15T18:42:13.301Z,8.28
2018-12-15T18:44:42.188Z,9.85
2018-12-15T18:47:11.053Z,7.87
2018-12-15T18:49:39.925Z,7.08
2018-12-15T18:52:13.518Z,6.53
2018-12-15T18:54:43.051Z,6.62
2018-12-15T18:57:11.815Z,5.70
2018-12-15T18:59:40.677Z,7.33
2018-12-15T19:02:09.529Z,5.00
2018-12-15T19:04:39.380Z,5.45
2018-12-15T19:07:08.205Z,5.42
2018-12-15T19:09:36.914Z,5.40
2018-12-15T19:12:05.695Z,6.03
2018-12-15T19:14:35.285Z,7.87
2018-12-15T19:17:04.121Z,5.95
2018-12-15T19:19:32.922Z,5.45
2018-12-15T19:22:02.691Z,8.23
2018-12-15T19:24:32.030Z,10.40
2018-12-15T19:27:01.003Z,6.40
2018-12-15T19:29:30.770Z,6.42
2018-12-15T19:31:59.577Z,8.33
2018-12-15T19:34:28.387Z,7.53
2018-12-15T19:36:57.108Z,7.35
2018-12-15T19:39:25.925Z,6.78
2018-12-15T19:41:55.331Z,5.08
2018-12-15T19:44:24.781Z,5.17
2018-12-15T19:46:53.655Z,5.40
2018-12-15T19:49:22.416Z,5.95
2018-12-15T19:51:51.185Z,6.08
2018-12-15T19:54:19.886Z,5.70
2018-12-15T19:56:48.687Z,6.50
2018-12-15T19:59:17.389Z,5.85
2018-12-15T20:01:46.266Z,5.53
2018-12-15T20:04:15.308Z,5.87
2018-12-15T20:06:44.202Z,5.90
2018-12-15T20:09:12.994Z,5.53
2018-12-15T20:11:41.687Z,6.40
2018-12-15T20:14:11.543Z,6.37
2018-12-15T20:16:40.309Z,8.00
2018-12-15T20:19:09.270Z,5.17
2018-12-15T20:21:37.987Z,6.00
2018-12-15T20:24:07.109Z,5.10
2018-12-15T20:26:35.902Z,5.50
2018-12-15T20:29:05.786Z,5.80
2018-12-15T20:31:34.714Z,4.83
2018-12-15T20:34:03.741Z,5.50
2018-12-15T20:36:33.041Z,4.45
2018-12-15T20:39:01.759Z,4.97
2018-12-15T20:41:32.542Z,6.08
2018-12-15T20:44:01.359Z,4.85
2018-12-15T20:46:30.664Z,4.58
2018-12-15T20:49:01.017Z,4.05
2018-12-15T20:51:29.774Z,3.55
2018-12-15T20:53:58.678Z,4.22
2018-12-15T20:56:27.604Z,5.47
2018-12-15T20:58:56.319Z,5.62
2018-12-15T21:01:25.250Z,5.65
2018-12-15T21:03:55.322Z,6.75
2018-12-15T21:06:24.126Z,8.45
2018-12-15T21:08:52.915Z,25.32
2018-12-15T21:11:24.267Z,9.78
2018-12-15T21:13:53.025Z,9.23
2018-12-15T21:16:22.029Z,12.58
2018-12-15T21:18:50.913Z,10.55
2018-12-15T21:21:19.672Z,9.58
2018-12-15T21:23:48.759Z,11.12
2018-12-15T21:26:18.191Z,10.40
2018-12-15T21:28:47.254Z,8.93
2018-12-15T21:31:15.977Z,15.35
2018-12-15T21:33:44.863Z,9.60
2018-12-15T21:36:13.672Z,9.40
2018-12-15T21:38:42.424Z,10.38
2018-12-15T21:41:11.111Z,11.10
2018-12-15T21:43:39.864Z,9.28
2018-12-15T21:46:08.783Z,8.40
2018-12-15T21:48:38.551Z,11.40
2018-12-15T21:51:07.370Z,7.70
2018-12-15T21:53:36.495Z,9.45
2018-12-15T21:56:05.271Z,9.03
2018-12-15T21:58:34.170Z,6.78
2018-12-15T22:01:03.088Z,7.85
2018-12-15T22:03:32.223Z,9.85
2018-12-15T22:06:01.084Z,7.90
2018-12-15T22:08:30.036Z,7.75
2018-12-15T22:10:59.029Z,10.43
2018-12-15T22:13:29.046Z,8.48
2018-12-15T22:15:57.954Z,7.80
2018-12-15T22:18:27.044Z,9.53
2018-12-15T22:20:56.680Z,7.92
2018-12-15T22:23:26.517Z,8.58
2018-12-15T22:25:55.365Z,9.53
2018-12-15T22:28:24.090Z,7.87
2018-12-15T22:30:53.028Z,7.22
2018-12-15T22:33:21.812Z,7.33
2018-12-15T22:35:50.514Z,8.08
2018-12-15T22:38:19.254Z,8.03
2018-12-15T22:40:48.064Z,7.28
2018-12-15T22:43:16.750Z,7.58
2018-12-15T22:45:47.472Z,6.78
2018-12-15T22:48:16.215Z,8.45
2018-12-15T22:50:44.954Z,8.18
2018-12-15T22:53:13.686Z,8.08
2018-12-15T22:55:42.464Z,6.55
2018-12-15T22:58:11.222Z,6.28
2018-12-15T23:00:46.556Z,7.53
2018-12-15T23:03:17.299Z,9.03
2018-12-15T23:05:46.998Z,7.92
2018-12-15T23:08:15.813Z,7.22
2018-12-15T23:10:44.605Z,6.15
2018-12-15T23:13:13.455Z,6.42
2018-12-15T23:15:43.486Z,7.42
2018-12-15T23:18:12.280Z,7.20
2018-12-15T23:20:41.184Z,6.90
2018-12-15T23:23:10.593Z,8.33
2018-12-15T23:25:39.718Z,6.80
2018-12-15T23:28:09.023Z,8.13
2018-12-15T23:30:38.210Z,6.72
2018-12-15T23:33:07.655Z,5.15
2018-12-15T23:35:36.444Z,7.37
2018-12-15T23:38:05.102Z,8.40
2018-12-15T23:40:34.153Z,5.75
2018-12-15T23:43:03.523Z,9.30
2018-12-15T23:45:32.273Z,7.55
2018-12-15T23:48:01.919Z,6.92
2018-12-15T23:50:31.000Z,6.67
2018-12-15T23:52:59.692Z,8.73
2018-12-15T23:55:30.718Z,7.37
2018-12-15T23:58:00.367Z,6.87
